sensor_id;sensor_type;location;lat;lon;timestamp;P1;durP1;ratioP1;P2;durP2;ratioP2
19836;SDS011;10079;55.740;37.662;2022-07-30T00:00:10;2.13;;;1.30;;
19836;SDS011;10079;55.740;37.662;2022-07-30T00:02:52;2.47;;;1.40;;
19836;SDS011;10079;55.740;37.662;2022-07-30T00:05:32;2.50;;;1.60;;
19836;SDS011;10079;55.740;37.662;2022-07-30T00:08:13;1.73;;;1.30;;
19836;SDS011;10079;55.740;37.662;2022-07-30T00:10:54;2.10;;;1.13;;
19836;SDS011;10079;55.740;37.662;2022-07-30T00:13:35;1.67;;;1.40;;
19836;SDS011;10079;55.740;37.662;2022-07-30T00:16:16;1.60;;;1.43;;
19836;SDS011;10079;55.740;37.662;2022-07-30T00:18:57;1.80;;;1.30;;
19836;SDS011;10079;55.740;37.662;2022-07-30T00:21:50;1.73;;;1.40;;
19836;SDS011;10079;55.740;37.662;2022-07-30T00:24:31;5.13;;;1.50;;
19836;SDS011;10079;55.740;37.662;2022-07-30T00:27:12;5.70;;;1.77;;
19836;SDS011;10079;55.740;37.662;2022-07-30T00:29:53;2.80;;;1.40;;
19836;SDS011;10079;55.740;37.662;2022-07-30T00:32:35;2.70;;;1.60;;
19836;SDS011;10079;55.740;37.662;2022-07-30T00:35:15;1.83;;;1.10;;
19836;SDS011;10079;55.740;37.662;2022-07-30T00:37:56;3.10;;;1.50;;
19836;SDS011;10079;55.740;37.662;2022-07-30T00:40:37;3.00;;;1.67;;
19836;SDS011;10079;55.740;37.662;2022-07-30T00:43:18;1.90;;;1.43;;
19836;SDS011;10079;55.740;37.662;2022-07-30T00:45:59;2.87;;;1.43;;
19836;SDS011;10079;55.740;37.662;2022-07-30T00:48:40;2.77;;;1.57;;
19836;SDS011;10079;55.740;37.662;2022-07-30T00:51:21;2.03;;;1.47;;
19836;SDS011;10079;55.740;37.662;2022-07-30T00:54:04;2.03;;;1.43;;
19836;SDS011;10079;55.740;37.662;2022-07-30T00:56:57;2.00;;;1.40;;
19836;SDS011;10079;55.740;37.662;2022-07-30T00:59:38;3.93;;;1.50;;
19836;SDS011;10079;55.740;37.662;2022-07-30T01:02:18;2.57;;;1.57;;
19836;SDS011;10079;55.740;37.662;2022-07-30T01:05:00;2.43;;;1.50;;
19836;SDS011;10079;55.740;37.662;2022-07-30T01:07:41;3.30;;;1.40;;
19836;SDS011;10079;55.740;37.662;2022-07-30T01:21:06;4.50;;;1.70;;
19836;SDS011;10079;55.740;37.662;2022-07-30T01:34:18;2.63;;;1.47;;
19836;SDS011;10079;55.740;37.662;2022-07-30T01:47:36;1.50;;;1.40;;
19836;SDS011;10079;55.740;37.662;2022-07-30T01:50:16;3.40;;;1.30;;
19836;SDS011;10079;55.740;37.662;2022-07-30T01:53:00;3.73;;;1.70;;
19836;SDS011;10079;55.740;37.662;2022-07-30T01:55:44;2.13;;;1.53;;
19836;SDS011;10079;55.740;37.662;2022-07-30T01:58:34;3.57;;;1.77;;
19836;SDS011;10079;55.740;37.662;2022-07-30T02:01:17;4.13;;;1.63;;
19836;SDS011;10079;55.740;37.662;2022-07-30T02:03:59;3.27;;;1.67;;
19836;SDS011;10079;55.740;37.662;2022-07-30T02:06:55;3.10;;;1.67;;
19836;SDS011;10079;55.740;37.662;2022-07-30T02:20:15;2.73;;;1.53;;
19836;SDS011;10079;55.740;37.662;2022-07-30T02:22:58;1.93;;;1.53;;
19836;SDS011;10079;55.740;37.662;2022-07-30T02:25:42;4.67;;;1.70;;
19836;SDS011;10079;55.740;37.662;2022-07-30T02:28:31;1.53;;;1.33;;
19836;SDS011;10079;55.740;37.662;2022-07-30T02:31:16;5.07;;;1.60;;
19836;SDS011;10079;55.740;37.662;2022-07-30T02:33:57;2.20;;;1.50;;
19836;SDS011;10079;55.740;37.662;2022-07-30T02:36:45;3.37;;;1.53;;
19836;SDS011;10079;55.740;37.662;2022-07-30T02:39:25;2.73;;;1.80;;
19836;SDS011;10079;55.740;37.662;2022-07-30T02:52:46;2.77;;;1.40;;
19836;SDS011;10079;55.740;37.662;2022-07-30T02:55:27;2.23;;;1.60;;
19836;SDS011;10079;55.740;37.662;2022-07-30T02:58:08;2.73;;;1.43;;
19836;SDS011;10079;55.740;37.662;2022-07-30T03:00:49;1.77;;;1.30;;
19836;SDS011;10079;55.740;37.662;2022-07-30T03:03:30;2.80;;;1.30;;
19836;SDS011;10079;55.740;37.662;2022-07-30T03:06:22;1.97;;;1.30;;
19836;SDS011;10079;55.740;37.662;2022-07-30T03:09:03;1.80;;;1.27;;
19836;SDS011;10079;55.740;37.662;2022-07-30T03:11:43;2.17;;;1.27;;
19836;SDS011;10079;55.740;37.662;2022-07-30T03:14:36;2.57;;;1.57;;
19836;SDS011;10079;55.740;37.662;2022-07-30T03:17:21;5.30;;;1.33;;
19836;SDS011;10079;55.740;37.662;2022-07-30T03:20:06;2.63;;;1.10;;
19836;SDS011;10079;55.740;37.662;2022-07-30T03:22:49;2.77;;;1.40;;
19836;SDS011;10079;55.740;37.662;2022-07-30T03:25:29;1.30;;;1.20;;
19836;SDS011;10079;55.740;37.662;2022-07-30T03:28:11;2.17;;;1.13;;
19836;SDS011;10079;55.740;37.662;2022-07-30T03:30:52;2.30;;;1.57;;
19836;SDS011;10079;55.740;37.662;2022-07-30T03:44:04;1.58;;;1.30;;
19836;SDS011;10079;55.740;37.662;2022-07-30T03:46:48;1.87;;;1.20;;
19836;SDS011;10079;55.740;37.662;2022-07-30T03:49:29;2.05;;;1.48;;
19836;SDS011;10079;55.740;37.662;2022-07-30T03:52:13;3.47;;;1.50;;
19836;SDS011;10079;55.740;37.662;2022-07-30T03:54:54;1.92;;;1.40;;
19836;SDS011;10079;55.740;37.662;2022-07-30T03:57:35;2.72;;;1.65;;
19836;SDS011;10079;55.740;37.662;2022-07-30T04:00:15;2.20;;;1.30;;
19836;SDS011;10079;55.740;37.662;2022-07-30T04:02:58;2.72;;;1.52;;
19836;SDS011;10079;55.740;37.662;2022-07-30T04:05:42;3.00;;;1.20;;
19836;SDS011;10079;55.740;37.662;2022-07-30T04:08:23;1.20;;;1.00;;
19836;SDS011;10079;55.740;37.662;2022-07-30T04:11:03;1.37;;;1.27;;
19836;SDS011;10079;55.740;37.662;2022-07-30T04:13:45;3.40;;;1.10;;
19836;SDS011;10079;55.740;37.662;2022-07-30T04:16:34;2.85;;;1.10;;
19836;SDS011;10079;55.740;37.662;2022-07-30T04:19:15;1.23;;;1.12;;
19836;SDS011;10079;55.740;37.662;2022-07-30T04:21:59;1.52;;;1.25;;
19836;SDS011;10079;55.740;37.662;2022-07-30T04:24:40;1.40;;;0.95;;
19836;SDS011;10079;55.740;37.662;2022-07-30T04:27:20;2.22;;;0.90;;
19836;SDS011;10079;55.740;37.662;2022-07-30T04:40:57;1.52;;;1.20;;
19836;SDS011;10079;55.740;37.662;2022-07-30T04:43:41;1.15;;;0.98;;
19836;SDS011;10079;55.740;37.662;2022-07-30T04:46:21;1.45;;;1.00;;
19836;SDS011;10079;55.740;37.662;2022-07-30T04:49:03;0.90;;;0.90;;
19836;SDS011;10079;55.740;37.662;2022-07-30T04:51:48;1.23;;;1.00;;
19836;SDS011;10079;55.740;37.662;2022-07-30T04:54:35;1.15;;;0.80;;
19836;SDS011;10079;55.740;37.662;2022-07-30T04:57:13;0.95;;;0.88;;
19836;SDS011;10079;55.740;37.662;2022-07-30T05:00:06;1.17;;;0.90;;
19836;SDS011;10079;55.740;37.662;2022-07-30T05:02:51;1.25;;;1.15;;
19836;SDS011;10079;55.740;37.662;2022-07-30T05:05:35;0.70;;;0.70;;
19836;SDS011;10079;55.740;37.662;2022-07-30T05:08:19;1.10;;;0.98;;
19836;SDS011;10079;55.740;37.662;2022-07-30T05:11:04;1.35;;;0.80;;
19836;SDS011;10079;55.740;37.662;2022-07-30T05:13:56;0.90;;;0.90;;
19836;SDS011;10079;55.740;37.662;2022-07-30T05:16:41;1.27;;;1.10;;
19836;SDS011;10079;55.740;37.662;2022-07-30T05:19:21;2.12;;;1.30;;
19836;SDS011;10079;55.740;37.662;2022-07-30T05:22:14;1.55;;;1.08;;
19836;SDS011;10079;55.740;37.662;2022-07-30T05:25:03;1.10;;;1.00;;
19836;SDS011;10079;55.740;37.662;2022-07-30T05:27:49;1.52;;;1.02;;
19836;SDS011;10079;55.740;37.662;2022-07-30T05:30:33;2.42;;;1.17;;
19836;SDS011;10079;55.740;37.662;2022-07-30T05:33:14;1.67;;;1.10;;
19836;SDS011;10079;55.740;37.662;2022-07-30T05:35:54;1.77;;;1.50;;
19836;SDS011;10079;55.740;37.662;2022-07-30T05:38:35;8.18;;;2.58;;
19836;SDS011;10079;55.740;37.662;2022-07-30T05:41:19;1.10;;;1.00;;
19836;SDS011;10079;55.740;37.662;2022-07-30T05:44:00;1.67;;;1.00;;
19836;SDS011;10079;55.740;37.662;2022-07-30T05:46:41;1.60;;;1.10;;
19836;SDS011;10079;55.740;37.662;2022-07-30T05:49:22;2.55;;;2.30;;
19836;SDS011;10079;55.740;37.662;2022-07-30T05:52:02;2.47;;;1.33;;
19836;SDS011;10079;55.740;37.662;2022-07-30T05:54:52;1.85;;;1.27;;
19836;SDS011;10079;55.740;37.662;2022-07-30T05:57:34;1.80;;;1.17;;
19836;SDS011;10079;55.740;37.662;2022-07-30T06:00:14;1.25;;;1.10;;
19836;SDS011;10079;55.740;37.662;2022-07-30T06:03:07;1.60;;;1.20;;
19836;SDS011;10079;55.740;37.662;2022-07-30T06:05:51;1.77;;;1.00;;
19836;SDS011;10079;55.740;37.662;2022-07-30T06:08:33;1.05;;;1.02;;
19836;SDS011;10079;55.740;37.662;2022-07-30T06:11:17;2.45;;;1.12;;
19836;SDS011;10079;55.740;37.662;2022-07-30T06:14:07;2.10;;;1.30;;
19836;SDS011;10079;55.740;37.662;2022-07-30T06:16:47;1.83;;;1.17;;
19836;SDS011;10079;55.740;37.662;2022-07-30T06:19:28;4.53;;;1.30;;
19836;SDS011;10079;55.740;37.662;2022-07-30T06:22:09;1.67;;;1.30;;
19836;SDS011;10079;55.740;37.662;2022-07-30T06:24:58;1.52;;;1.10;;
19836;SDS011;10079;55.740;37.662;2022-07-30T06:27:39;1.92;;;1.30;;
19836;SDS011;10079;55.740;37.662;2022-07-30T06:30:20;2.25;;;1.33;;
19836;SDS011;10079;55.740;37.662;2022-07-30T06:33:01;1.17;;;1.02;;
19836;SDS011;10079;55.740;37.662;2022-07-30T06:35:45;0.98;;;0.98;;
19836;SDS011;10079;55.740;37.662;2022-07-30T06:38:26;1.48;;;1.00;;
19836;SDS011;10079;55.740;37.662;2022-07-30T06:41:08;1.20;;;1.10;;
19836;SDS011;10079;55.740;37.662;2022-07-30T06:43:49;1.00;;;0.90;;
19836;SDS011;10079;55.740;37.662;2022-07-30T06:46:33;1.83;;;1.20;;
19836;SDS011;10079;55.740;37.662;2022-07-30T06:49:17;2.12;;;1.30;;
19836;SDS011;10079;55.740;37.662;2022-07-30T06:51:58;2.45;;;1.20;;
19836;SDS011;10079;55.740;37.662;2022-07-30T06:54:39;2.05;;;1.30;;
19836;SDS011;10079;55.740;37.662;2022-07-30T06:57:32;2.17;;;1.65;;
19836;SDS011;10079;55.740;37.662;2022-07-30T07:00:12;1.73;;;1.08;;
19836;SDS011;10079;55.740;37.662;2022-07-30T07:02:57;1.65;;;1.10;;
19836;SDS011;10079;55.740;37.662;2022-07-30T07:05:38;1.42;;;1.15;;
19836;SDS011;10079;55.740;37.662;2022-07-30T07:08:19;1.35;;;1.25;;
19836;SDS011;10079;55.740;37.662;2022-07-30T07:11:02;1.27;;;1.17;;
19836;SDS011;10079;55.740;37.662;2022-07-30T07:13:43;1.40;;;1.30;;
19836;SDS011;10079;55.740;37.662;2022-07-30T07:16:23;1.55;;;1.20;;
19836;SDS011;10079;55.740;37.662;2022-07-30T07:19:08;1.55;;;1.20;;
19836;SDS011;10079;55.740;37.662;2022-07-30T07:21:48;1.20;;;1.20;;
19836;SDS011;10079;55.740;37.662;2022-07-30T07:24:29;1.87;;;1.20;;
19836;SDS011;10079;55.740;37.662;2022-07-30T07:27:10;2.75;;;1.02;;
19836;SDS011;10079;55.740;37.662;2022-07-30T07:29:51;1.77;;;1.52;;
19836;SDS011;10079;55.740;37.662;2022-07-30T07:32:33;2.47;;;1.02;;
19836;SDS011;10079;55.740;37.662;2022-07-30T07:35:13;3.42;;;1.20;;
19836;SDS011;10079;55.740;37.662;2022-07-30T07:37:54;2.62;;;1.20;;
19836;SDS011;10079;55.740;37.662;2022-07-30T07:40:35;2.03;;;1.15;;
19836;SDS011;10079;55.740;37.662;2022-07-30T07:43:16;1.40;;;1.10;;
19836;SDS011;10079;55.740;37.662;2022-07-30T07:46:00;3.42;;;1.50;;
19836;SDS011;10079;55.740;37.662;2022-07-30T07:48:44;1.67;;;1.00;;
19836;SDS011;10079;55.740;37.662;2022-07-30T07:51:25;2.08;;;1.20;;
19836;SDS011;10079;55.740;37.662;2022-07-30T07:54:05;1.55;;;1.30;;
19836;SDS011;10079;55.740;37.662;2022-07-30T07:56:47;1.77;;;1.10;;
19836;SDS011;10079;55.740;37.662;2022-07-30T08:20:44;2.05;;;1.80;;
19836;SDS011;10079;55.740;37.662;2022-07-30T08:23:26;4.72;;;1.25;;
19836;SDS011;10079;55.740;37.662;2022-07-30T08:26:10;2.92;;;1.00;;
19836;SDS011;10079;55.740;37.662;2022-07-30T08:29:03;1.85;;;1.20;;
19836;SDS011;10079;55.740;37.662;2022-07-30T08:31:47;1.75;;;1.50;;
19836;SDS011;10079;55.740;37.662;2022-07-30T08:34:27;1.92;;;1.30;;
19836;SDS011;10079;55.740;37.662;2022-07-30T08:37:08;2.55;;;1.48;;
19836;SDS011;10079;55.740;37.662;2022-07-30T08:50:35;2.28;;;1.27;;
19836;SDS011;10079;55.740;37.662;2022-07-30T08:53:16;1.98;;;1.10;;
19836;SDS011;10079;55.740;37.662;2022-07-30T08:56:10;1.40;;;1.30;;
19836;SDS011;10079;55.740;37.662;2022-07-30T08:58:53;2.42;;;1.10;;
19836;SDS011;10079;55.740;37.662;2022-07-30T09:01:38;2.67;;;1.62;;
19836;SDS011;10079;55.740;37.662;2022-07-30T09:04:18;2.15;;;1.20;;
19836;SDS011;10079;55.740;37.662;2022-07-30T09:06:59;1.23;;;1.12;;
19836;SDS011;10079;55.740;37.662;2022-07-30T09:09:43;4.72;;;1.30;;
19836;SDS011;10079;55.740;37.662;2022-07-30T09:12:34;2.28;;;1.30;;
19836;SDS011;10079;55.740;37.662;2022-07-30T09:15:16;2.60;;;1.35;;
19836;SDS011;10079;55.740;37.662;2022-07-30T09:18:04;2.72;;;1.50;;
19836;SDS011;10079;55.740;37.662;2022-07-30T09:20:48;1.98;;;1.15;;
19836;SDS011;10079;55.740;37.662;2022-07-30T09:23:29;3.50;;;1.20;;
19836;SDS011;10079;55.740;37.662;2022-07-30T09:26:19;2.83;;;1.37;;
19836;SDS011;10079;55.740;37.662;2022-07-30T09:32:04;1.60;;;1.00;;
19836;SDS011;10079;55.740;37.662;2022-07-30T09:34:54;1.35;;;1.25;;
19836;SDS011;10079;55.740;37.662;2022-07-30T09:37:38;1.75;;;0.85;;
19836;SDS011;10079;55.740;37.662;2022-07-30T09:40:23;2.90;;;1.10;;
19836;SDS011;10079;55.740;37.662;2022-07-30T09:43:08;1.55;;;1.20;;
19836;SDS011;10079;55.740;37.662;2022-07-30T09:45:51;1.62;;;1.20;;
19836;SDS011;10079;55.740;37.662;2022-07-30T09:48:31;1.62;;;1.10;;
19836;SDS011;10079;55.740;37.662;2022-07-30T09:51:12;1.00;;;1.00;;
19836;SDS011;10079;55.740;37.662;2022-07-30T10:04:30;1.00;;;0.90;;
19836;SDS011;10079;55.740;37.662;2022-07-30T10:07:17;2.00;;;1.48;;
19836;SDS011;10079;55.740;37.662;2022-07-30T10:09:57;1.45;;;1.20;;
19836;SDS011;10079;55.740;37.662;2022-07-30T10:12:37;2.87;;;1.65;;
19836;SDS011;10079;55.740;37.662;2022-07-30T10:15:19;1.62;;;1.30;;
19836;SDS011;10079;55.740;37.662;2022-07-30T10:18:03;1.10;;;1.00;;
19836;SDS011;10079;55.740;37.662;2022-07-30T10:20:47;2.10;;;1.33;;
19836;SDS011;10079;55.740;37.662;2022-07-30T10:23:28;1.02;;;1.00;;
19836;SDS011;10079;55.740;37.662;2022-07-30T10:26:09;0.90;;;0.90;;
19836;SDS011;10079;55.740;37.662;2022-07-30T10:28:50;3.25;;;1.37;;
19836;SDS011;10079;55.740;37.662;2022-07-30T10:31:34;1.37;;;0.95;;
19836;SDS011;10079;55.740;37.662;2022-07-30T10:34:17;3.03;;;1.10;;
19836;SDS011;10079;55.740;37.662;2022-07-30T10:36:59;1.73;;;1.10;;
19836;SDS011;10079;55.740;37.662;2022-07-30T10:39:44;2.15;;;0.82;;
19836;SDS011;10079;55.740;37.662;2022-07-30T10:45:16;1.20;;;1.10;;
19836;SDS011;10079;55.740;37.662;2022-07-30T10:47:58;2.10;;;1.20;;
19836;SDS011;10079;55.740;37.662;2022-07-30T10:53:32;3.25;;;1.40;;
19836;SDS011;10079;55.740;37.662;2022-07-30T10:56:18;1.75;;;1.20;;
19836;SDS011;10079;55.740;37.662;2022-07-30T10:59:03;2.37;;;1.20;;
19836;SDS011;10079;55.740;37.662;2022-07-30T11:04:48;1.30;;;0.93;;
19836;SDS011;10079;55.740;37.662;2022-07-30T11:07:29;2.55;;;0.80;;
19836;SDS011;10079;55.740;37.662;2022-07-30T11:13:07;1.10;;;0.98;;
19836;SDS011;10079;55.740;37.662;2022-07-30T11:16:00;1.65;;;1.50;;
19836;SDS011;10079;55.740;37.662;2022-07-30T11:29:32;2.83;;;1.60;;
19836;SDS011;10079;55.740;37.662;2022-07-30T11:32:29;2.92;;;1.58;;
19836;SDS011;10079;55.740;37.662;2022-07-30T11:35:12;1.95;;;1.08;;
19836;SDS011;10079;55.740;37.662;2022-07-30T11:51:46;1.98;;;1.17;;
19836;SDS011;10079;55.740;37.662;2022-07-30T12:08:12;2.05;;;1.00;;
19836;SDS011;10079;55.740;37.662;2022-07-30T12:10:54;1.37;;;1.27;;
19836;SDS011;10079;55.740;37.662;2022-07-30T12:13:39;1.67;;;1.15;;
19836;SDS011;10079;55.740;37.662;2022-07-30T12:16:28;1.15;;;1.05;;
19836;SDS011;10079;55.740;37.662;2022-07-30T12:19:08;1.35;;;1.10;;
19836;SDS011;10079;55.740;37.662;2022-07-30T12:21:52;2.08;;;0.90;;
19836;SDS011;10079;55.740;37.662;2022-07-30T12:24:36;3.00;;;1.02;;
19836;SDS011;10079;55.740;37.662;2022-07-30T12:27:20;2.08;;;1.12;;
19836;SDS011;10079;55.740;37.662;2022-07-30T12:30:05;1.05;;;0.80;;
19836;SDS011;10079;55.740;37.662;2022-07-30T12:32:59;2.95;;;1.45;;
19836;SDS011;10079;55.740;37.662;2022-07-30T12:35:44;3.22;;;1.60;;
19836;SDS011;10079;55.740;37.662;2022-07-30T12:38:48;1.85;;;1.30;;
19836;SDS011;10079;55.740;37.662;2022-07-30T12:54:56;1.42;;;1.20;;
19836;SDS011;10079;55.740;37.662;2022-07-30T13:00:47;1.67;;;0.90;;
19836;SDS011;10079;55.740;37.662;2022-07-30T13:03:27;0.95;;;0.85;;
19836;SDS011;10079;55.740;37.662;2022-07-30T13:06:12;2.05;;;1.12;;
19836;SDS011;10079;55.740;37.662;2022-07-30T13:09:04;1.52;;;1.20;;
19836;SDS011;10079;55.740;37.662;2022-07-30T13:11:44;2.17;;;1.30;;
19836;SDS011;10079;55.740;37.662;2022-07-30T13:14:28;1.30;;;1.20;;
19836;SDS011;10079;55.740;37.662;2022-07-30T13:17:21;1.55;;;1.05;;
19836;SDS011;10079;55.740;37.662;2022-07-30T13:20:02;1.08;;;0.82;;
19836;SDS011;10079;55.740;37.662;2022-07-30T13:22:43;1.55;;;0.80;;
19836;SDS011;10079;55.740;37.662;2022-07-30T13:25:24;2.67;;;1.00;;
19836;SDS011;10079;55.740;37.662;2022-07-30T13:28:05;1.87;;;1.30;;
19836;SDS011;10079;55.740;37.662;2022-07-30T13:30:47;2.95;;;1.20;;
19836;SDS011;10079;55.740;37.662;2022-07-30T13:33:28;2.28;;;1.48;;
19836;SDS011;10079;55.740;37.662;2022-07-30T13:36:12;0.90;;;0.77;;
19836;SDS011;10079;55.740;37.662;2022-07-30T13:38:53;2.72;;;1.10;;
19836;SDS011;10079;55.740;37.662;2022-07-30T13:41:37;2.65;;;1.25;;
19836;SDS011;10079;55.740;37.662;2022-07-30T13:44:18;2.67;;;0.80;;
19836;SDS011;10079;55.740;37.662;2022-07-30T13:46:58;1.75;;;0.90;;
19836;SDS011;10079;55.740;37.662;2022-07-30T13:49:40;1.87;;;0.98;;
19836;SDS011;10079;55.740;37.662;2022-07-30T13:52:21;2.50;;;0.95;;
19836;SDS011;10079;55.740;37.662;2022-07-30T13:55:05;1.27;;;1.10;;
19836;SDS011;10079;55.740;37.662;2022-07-30T13:57:46;1.35;;;1.00;;
19836;SDS011;10079;55.740;37.662;2022-07-30T14:00:26;2.10;;;1.27;;
19836;SDS011;10079;55.740;37.662;2022-07-30T14:03:08;2.78;;;1.00;;
19836;SDS011;10079;55.740;37.662;2022-07-30T14:05:49;1.02;;;0.93;;
19836;SDS011;10079;55.740;37.662;2022-07-30T14:08:33;1.83;;;1.30;;
19836;SDS011;10079;55.740;37.662;2022-07-30T14:11:13;1.40;;;1.10;;
19836;SDS011;10079;55.740;37.662;2022-07-30T14:13:55;3.20;;;0.90;;
19836;SDS011;10079;55.740;37.662;2022-07-30T14:16:36;2.25;;;1.05;;
19836;SDS011;10079;55.740;37.662;2022-07-30T14:19:18;3.40;;;0.95;;
19836;SDS011;10079;55.740;37.662;2022-07-30T14:21:59;1.50;;;1.15;;
19836;SDS011;10079;55.740;37.662;2022-07-30T14:24:40;0.77;;;0.77;;
19836;SDS011;10079;55.740;37.662;2022-07-30T14:27:21;1.60;;;1.02;;
19836;SDS011;10079;55.740;37.662;2022-07-30T14:30:03;1.75;;;0.93;;
19836;SDS011;10079;55.740;37.662;2022-07-30T14:32:44;2.58;;;1.17;;
19836;SDS011;10079;55.740;37.662;2022-07-30T14:35:26;1.10;;;0.90;;
19836;SDS011;10079;55.740;37.662;2022-07-30T14:38:07;2.35;;;1.20;;
19836;SDS011;10079;55.740;37.662;2022-07-30T14:40:48;1.30;;;1.20;;
19836;SDS011;10079;55.740;37.662;2022-07-30T14:43:37;1.50;;;1.00;;
19836;SDS011;10079;55.740;37.662;2022-07-30T15:07:50;1.12;;;1.02;;
19836;SDS011;10079;55.740;37.662;2022-07-30T15:10:34;2.97;;;0.90;;
19836;SDS011;10079;55.740;37.662;2022-07-30T15:13:24;2.78;;;0.82;;
19836;SDS011;10079;55.740;37.662;2022-07-30T15:16:09;1.87;;;1.00;;
19836;SDS011;10079;55.740;37.662;2022-07-30T15:18:53;2.13;;;1.10;;
19836;SDS011;10079;55.740;37.662;2022-07-30T15:32:08;2.15;;;1.00;;
19836;SDS011;10079;55.740;37.662;2022-07-30T15:34:53;2.45;;;1.02;;
19836;SDS011;10079;55.740;37.662;2022-07-30T15:37:42;2.40;;;1.10;;
19836;SDS011;10079;55.740;37.662;2022-07-30T15:40:23;2.35;;;1.10;;
19836;SDS011;10079;55.740;37.662;2022-07-30T15:43:04;2.23;;;1.83;;
19836;SDS011;10079;55.740;37.662;2022-07-30T15:45:48;2.72;;;1.87;;
19836;SDS011;10079;55.740;37.662;2022-07-30T15:59:08;1.50;;;1.08;;
19836;SDS011;10079;55.740;37.662;2022-07-30T16:01:52;1.27;;;1.10;;
19836;SDS011;10079;55.740;37.662;2022-07-30T16:04:41;2.37;;;1.33;;
19836;SDS011;10079;55.740;37.662;2022-07-30T16:07:31;2.13;;;1.70;;
19836;SDS011;10079;55.740;37.662;2022-07-30T16:10:20;2.30;;;1.37;;
19836;SDS011;10079;55.740;37.662;2022-07-30T16:23:42;2.63;;;1.77;;
19836;SDS011;10079;55.740;37.662;2022-07-30T16:26:26;2.77;;;2.07;;
19836;SDS011;10079;55.740;37.662;2022-07-30T16:29:07;2.80;;;1.57;;
19836;SDS011;10079;55.740;37.662;2022-07-30T16:31:47;2.40;;;1.60;;
19836;SDS011;10079;55.740;37.662;2022-07-30T16:34:32;2.87;;;1.50;;
19836;SDS011;10079;55.740;37.662;2022-07-30T16:37:12;1.57;;;1.10;;
19836;SDS011;10079;55.740;37.662;2022-07-30T16:39:53;3.50;;;1.50;;
19836;SDS011;10079;55.740;37.662;2022-07-30T16:42:37;2.47;;;1.47;;
19836;SDS011;10079;55.740;37.662;2022-07-30T16:45:18;4.03;;;1.33;;
19836;SDS011;10079;55.740;37.662;2022-07-30T16:47:59;1.53;;;1.20;;
19836;SDS011;10079;55.740;37.662;2022-07-30T16:50:41;2.97;;;1.83;;
19836;SDS011;10079;55.740;37.662;2022-07-30T16:53:21;2.13;;;1.57;;
19836;SDS011;10079;55.740;37.662;2022-07-30T16:56:03;2.07;;;1.30;;
19836;SDS011;10079;55.740;37.662;2022-07-30T16:58:45;3.33;;;1.40;;
19836;SDS011;10079;55.740;37.662;2022-07-30T17:01:25;2.40;;;1.37;;
19836;SDS011;10079;55.740;37.662;2022-07-30T17:04:13;2.63;;;1.20;;
19836;SDS011;10079;55.740;37.662;2022-07-30T17:07:07;2.30;;;1.30;;
19836;SDS011;10079;55.740;37.662;2022-07-30T17:09:59;1.30;;;1.20;;
19836;SDS011;10079;55.740;37.662;2022-07-30T17:12:44;2.73;;;1.10;;
19836;SDS011;10079;55.740;37.662;2022-07-30T17:15:25;4.90;;;1.70;;
19836;SDS011;10079;55.740;37.662;2022-07-30T17:18:06;1.87;;;1.40;;
19836;SDS011;10079;55.740;37.662;2022-07-30T17:20:47;2.30;;;1.40;;
19836;SDS011;10079;55.740;37.662;2022-07-30T17:23:28;1.50;;;1.33;;
19836;SDS011;10079;55.740;37.662;2022-07-30T17:26:08;3.30;;;1.20;;
19836;SDS011;10079;55.740;37.662;2022-07-30T17:28:49;5.10;;;1.93;;
19836;SDS011;10079;55.740;37.662;2022-07-30T17:31:30;3.23;;;1.63;;
19836;SDS011;10079;55.740;37.662;2022-07-30T17:34:11;2.97;;;1.50;;
19836;SDS011;10079;55.740;37.662;2022-07-30T17:36:52;2.47;;;1.47;;
19836;SDS011;10079;55.740;37.662;2022-07-30T17:39:33;2.23;;;1.50;;
19836;SDS011;10079;55.740;37.662;2022-07-30T17:42:14;5.23;;;1.83;;
19836;SDS011;10079;55.740;37.662;2022-07-30T17:45:05;3.60;;;2.07;;
19836;SDS011;10079;55.740;37.662;2022-07-30T17:47:47;2.77;;;2.07;;
19836;SDS011;10079;55.740;37.662;2022-07-30T17:50:28;3.07;;;1.90;;
19836;SDS011;10079;55.740;37.662;2022-07-30T17:53:09;2.63;;;1.70;;
19836;SDS011;10079;55.740;37.662;2022-07-30T17:55:49;1.83;;;1.67;;
19836;SDS011;10079;55.740;37.662;2022-07-30T17:58:31;3.17;;;1.70;;
19836;SDS011;10079;55.740;37.662;2022-07-30T18:01:12;1.80;;;1.40;;
19836;SDS011;10079;55.740;37.662;2022-07-30T18:03:56;2.63;;;1.30;;
19836;SDS011;10079;55.740;37.662;2022-07-30T18:17:24;2.03;;;1.53;;
19836;SDS011;10079;55.740;37.662;2022-07-30T18:20:05;2.50;;;1.40;;
19836;SDS011;10079;55.740;37.662;2022-07-30T18:33:31;4.17;;;1.70;;
19836;SDS011;10079;55.740;37.662;2022-07-30T18:47:02;2.80;;;2.00;;
19836;SDS011;10079;55.740;37.662;2022-07-30T18:49:43;2.47;;;1.90;;
19836;SDS011;10079;55.740;37.662;2022-07-30T18:52:27;5.00;;;2.20;;
19836;SDS011;10079;55.740;37.662;2022-07-30T18:55:08;3.73;;;1.97;;
19836;SDS011;10079;55.740;37.662;2022-07-30T19:08:28;4.93;;;2.20;;
19836;SDS011;10079;55.740;37.662;2022-07-30T19:11:17;3.13;;;2.07;;
19836;SDS011;10079;55.740;37.662;2022-07-30T19:13:58;4.17;;;2.07;;
19836;SDS011;10079;55.740;37.662;2022-07-30T19:16:43;4.63;;;2.20;;
19836;SDS011;10079;55.740;37.662;2022-07-30T19:19:23;5.57;;;2.53;;
19836;SDS011;10079;55.740;37.662;2022-07-30T19:22:07;3.90;;;2.43;;
19836;SDS011;10079;55.740;37.662;2022-07-30T19:24:48;5.27;;;2.53;;
19836;SDS011;10079;55.740;37.662;2022-07-30T19:27:33;5.17;;;2.53;;
19836;SDS011;10079;55.740;37.662;2022-07-30T19:30:13;4.33;;;2.47;;
19836;SDS011;10079;55.740;37.662;2022-07-30T19:32:54;6.33;;;2.90;;
19836;SDS011;10079;55.740;37.662;2022-07-30T19:35:39;4.30;;;2.90;;
19836;SDS011;10079;55.740;37.662;2022-07-30T19:38:20;6.10;;;2.60;;
19836;SDS011;10079;55.740;37.662;2022-07-30T19:41:01;6.83;;;2.83;;
19836;SDS011;10079;55.740;37.662;2022-07-30T19:43:42;4.27;;;2.47;;
19836;SDS011;10079;55.740;37.662;2022-07-30T19:46:23;6.00;;;2.67;;
19836;SDS011;10079;55.740;37.662;2022-07-30T19:49:04;7.23;;;2.70;;
19836;SDS011;10079;55.740;37.662;2022-07-30T19:51:48;5.40;;;3.20;;
19836;SDS011;10079;55.740;37.662;2022-07-30T19:54:38;7.03;;;2.57;;
19836;SDS011;10079;55.740;37.662;2022-07-30T19:57:22;6.00;;;2.83;;
19836;SDS011;10079;55.740;37.662;2022-07-30T20:00:03;7.60;;;2.47;;
19836;SDS011;10079;55.740;37.662;2022-07-30T20:02:46;4.03;;;2.57;;
19836;SDS011;10079;55.740;37.662;2022-07-30T20:05:27;4.63;;;2.60;;
19836;SDS011;10079;55.740;37.662;2022-07-30T20:08:08;5.20;;;2.70;;
19836;SDS011;10079;55.740;37.662;2022-07-30T20:10:49;8.13;;;2.87;;
19836;SDS011;10079;55.740;37.662;2022-07-30T20:13:30;5.93;;;3.20;;
19836;SDS011;10079;55.740;37.662;2022-07-30T20:16:12;8.77;;;3.00;;
19836;SDS011;10079;55.740;37.662;2022-07-30T20:18:52;7.30;;;3.30;;
19836;SDS011;10079;55.740;37.662;2022-07-30T20:21:32;8.57;;;5.17;;
19836;SDS011;10079;55.740;37.662;2022-07-30T20:24:13;8.87;;;4.73;;
19836;SDS011;10079;55.740;37.662;2022-07-30T20:26:57;9.53;;;4.00;;
19836;SDS011;10079;55.740;37.662;2022-07-30T20:29:38;10.03;;;3.83;;
19836;SDS011;10079;55.740;37.662;2022-07-30T20:32:19;5.53;;;3.37;;
19836;SDS011;10079;55.740;37.662;2022-07-30T20:35:00;6.57;;;3.57;;
19836;SDS011;10079;55.740;37.662;2022-07-30T20:37:41;10.40;;;4.13;;
19836;SDS011;10079;55.740;37.662;2022-07-30T20:40:22;9.77;;;4.50;;
19836;SDS011;10079;55.740;37.662;2022-07-30T20:43:15;11.33;;;4.40;;
19836;SDS011;10079;55.740;37.662;2022-07-30T20:45:55;9.43;;;4.50;;
19836;SDS011;10079;55.740;37.662;2022-07-30T20:48:36;11.17;;;4.77;;